Time;durP1;ratioP1;P1;durP2;ratioP2;P2;SDS_P1;SDS_P2;PMS_P1;PMS_P2;Temp;Humidity;BMP_temperature;BMP_pressure;BME280_temperature;BME280_humidity;BME280_pressure;Samples;Min_cycle;Max_cycle;Signal;HPM_P1;HPM_P2
2023/08/22 00:01:43;;;;;;;10.00;5.28;;;;;;;;;;10374869;28;20075;-62
2023/08/22 00:06:41;;;;;;;12.40;5.10;;;;;;;;;;10371664;28;20071;-62
2023/08/22 00:11:39;;;;;;;6.60;5.68;;;;;;;;;;10374130;28;20080;-62
2023/08/22 00:16:39;;;;;;;8.52;5.60;;;;;;;;;;10372520;28;20042;-62
2023/08/22 00:21:37;;;;;;;6.78;5.97;;;;;;;;;;10374313;28;20075;-62
2023/08/22 00:26:35;;;;;;;8.52;6.30;;;;;;;;;;10370977;28;20956;-61
2023/08/22 00:31:34;;;;;;;7.18;6.50;;;;;;;;;;10352424;28;20090;-62
2023/08/22 00:36:33;;;;;;;7.75;6.55;;;;;;;;;;10353869;28;20757;-63
2023/08/22 00:41:32;;;;;;;9.40;6.05;;;;;;;;;;10367624;28;20071;-62
2023/08/22 00:46:30;;;;;;;10.93;7.22;;;;;;;;;;10364308;28;20074;-63
2023/08/22 00:51:29;;;;;;;11.95;7.10;;;;;;;;;;10361631;28;20733;-62
2023/08/22 00:56:28;;;;;;;8.15;6.68;;;;;;;;;;10376900;28;20063;-62
2023/08/22 01:01:27;;;;;;;9.88;7.07;;;;;;;;;;10362016;28;20437;-62
2023/08/22 01:06:28;;;;;;;10.63;7.47;;;;;;;;;;10375686;28;20071;-62
2023/08/22 01:11:32;;;;;;;9.55;7.18;;;;;;;;;;10357878;28;20079;-63
2023/08/22 01:16:31;;;;;;;7.55;6.28;;;;;;;;;;10375345;28;20509;-62
2023/08/22 01:21:30;;;;;;;7.75;6.72;;;;;;;;;;10375160;28;20060;-63
2023/08/22 01:26:30;;;;;;;8.13;7.30;;;;;;;;;;10375863;27;20513;-62
2023/08/22 01:31:30;;;;;;;8.38;6.95;;;;;;;;;;10375473;28;20059;-62
2023/08/22 01:36:29;;;;;;;8.75;6.95;;;;;;;;;;10374604;28;20086;-62
2023/08/22 01:41:27;;;;;;;12.23;6.88;;;;;;;;;;10366149;28;20062;-62
2023/08/22 01:46:27;;;;;;;10.35;8.02;;;;;;;;;;10363627;28;20461;-62
2023/08/22 01:51:25;;;;;;;7.60;6.88;;;;;;;;;;10364524;28;20075;-63
2023/08/22 01:56:24;;;;;;;13.70;7.82;;;;;;;;;;10359113;28;20051;-62
2023/08/22 02:01:23;;;;;;;7.35;6.65;;;;;;;;;;10359637;28;20071;-62
2023/08/22 02:06:23;;;;;;;9.43;7.75;;;;;;;;;;10373981;28;20076;-63
2023/08/22 02:11:21;;;;;;;8.23;7.57;;;;;;;;;;10374662;28;20063;-63
2023/08/22 02:16:19;;;;;;;8.05;7.25;;;;;;;;;;10376317;28;20445;-63
2023/08/22 02:21:17;;;;;;;8.10;7.30;;;;;;;;;;10374397;28;20075;-63
2023/08/22 02:26:17;;;;;;;13.65;8.45;;;;;;;;;;10361277;28;20078;-63
2023/08/22 02:31:15;;;;;;;12.38;8.70;;;;;;;;;;10375855;28;20068;-63
2023/08/22 02:36:14;;;;;;;11.25;8.38;;;;;;;;;;10373335;28;20071;-63
2023/08/22 02:41:12;;;;;;;11.70;8.82;;;;;;;;;;10372732;28;20073;-63
2023/08/22 02:46:12;;;;;;;9.82;8.10;;;;;;;;;;10360580;28;20083;-62
2023/08/22 02:51:11;;;;;;;12.80;8.38;;;;;;;;;;10375761;28;20075;-63
2023/08/22 02:56:09;;;;;;;9.60;8.60;;;;;;;;;;10372289;28;20059;-63
2023/08/22 03:01:07;;;;;;;9.20;8.32;;;;;;;;;;10370257;28;20059;-62
2023/08/22 03:06:07;;;;;;;9.10;7.95;;;;;;;;;;10356492;28;20072;-63
2023/08/22 03:11:05;;;;;;;10.02;9.05;;;;;;;;;;10353934;28;20067;-61
2023/08/22 03:16:04;;;;;;;9.23;8.35;;;;;;;;;;10371338;27;20071;-63
2023/08/22 03:21:07;;;;;;;13.30;8.88;;;;;;;;;;10360175;28;20067;-62
2023/08/22 03:26:10;;;;;;;9.82;8.93;;;;;;;;;;10348083;28;20080;-61
2023/08/22 03:31:11;;;;;;;10.13;9.20;;;;;;;;;;10356859;28;20080;-62
2023/08/22 03:36:11;;;;;;;13.13;9.40;;;;;;;;;;10351755;28;20761;-62
2023/08/22 03:41:09;;;;;;;11.07;8.90;;;;;;;;;;10364747;28;20468;-62
2023/08/22 03:46:08;;;;;;;9.98;9.07;;;;;;;;;;10351455;28;20078;-62
2023/08/22 03:51:06;;;;;;;13.63;9.52;;;;;;;;;;10355650;28;20078;-63
2023/08/22 03:56:07;;;;;;;9.73;8.82;;;;;;;;;;10354073;28;20094;-64
2023/08/22 04:01:06;;;;;;;9.77;8.88;;;;;;;;;;10372416;28;20044;-61
2023/08/22 04:06:07;;;;;;;10.25;9.02;;;;;;;;;;10373387;28;20078;-61
2023/08/22 04:11:06;;;;;;;11.15;8.77;;;;;;;;;;10379021;28;20094;-62
2023/08/22 04:16:05;;;;;;;11.48;9.43;;;;;;;;;;10372637;27;20102;-62
2023/08/22 04:21:04;;;;;;;15.77;8.57;;;;;;;;;;10356049;28;20549;-62
2023/08/22 04:26:02;;;;;;;11.15;9.77;;;;;;;;;;10348626;28;20047;-63
2023/08/22 04:31:03;;;;;;;15.55;9.25;;;;;;;;;;10369660;28;20081;-62
2023/08/22 04:36:02;;;;;;;10.73;9.73;;;;;;;;;;10356320;28;20082;-62
2023/08/22 04:41:00;;;;;;;22.33;10.82;;;;;;;;;;10370347;28;20076;-62
2023/08/22 04:46:07;;;;;;;13.07;9.77;;;;;;;;;;10370298;28;20113;-62
2023/08/22 04:51:06;;;;;;;14.73;11.05;;;;;;;;;;10355454;28;20078;-62
2023/08/22 04:56:04;;;;;;;18.25;10.10;;;;;;;;;;10368407;28;20079;-62
2023/08/22 05:01:02;;;;;;;14.50;9.45;;;;;;;;;;10370579;28;20076;-61
2023/08/22 05:06:03;;;;;;;17.80;9.98;;;;;;;;;;10371376;28;20047;-61
2023/08/22 05:11:03;;;;;;;22.23;10.50;;;;;;;;;;10356185;28;20090;-61
2023/08/22 05:16:01;;;;;;;12.23;8.77;;;;;;;;;;10370084;28;20071;-62
2023/08/22 05:21:00;;;;;;;14.23;9.23;;;;;;;;;;10371402;28;20111;-62
2023/08/22 05:25:59;;;;;;;20.27;9.63;;;;;;;;;;10354110;28;20091;-61
2023/08/22 05:30:57;;;;;;;26.33;9.65;;;;;;;;;;10373228;28;20078;-61
2023/08/22 05:36:02;;;;;;;20.88;10.00;;;;;;;;;;10362417;28;20055;-62
2023/08/22 05:41:02;;;;;;;16.05;10.13;;;;;;;;;;10356559;28;20071;-62
2023/08/22 05:46:01;;;;;;;20.23;17.25;;;;;;;;;;10375399;28;20074;-62
2023/08/22 05:51:01;;;;;;;13.48;10.23;;;;;;;;;;10377511;28;20055;-62
2023/08/22 05:56:01;;;;;;;16.38;9.88;;;;;;;;;;10376619;28;20043;-62
2023/08/22 06:01:06;;;;;;;21.90;10.95;;;;;;;;;;10378814;28;20076;-63
2023/08/22 06:06:06;;;;;;;19.85;11.52;;;;;;;;;;10377164;28;20083;-62
2023/08/22 06:11:05;;;;;;;41.35;34.78;;;;;;;;;;10377860;28;20483;-63
2023/08/22 06:16:04;;;;;;;25.30;13.13;;;;;;;;;;10378600;28;20106;-62
2023/08/22 06:21:03;;;;;;;12.80;10.77;;;;;;;;;;10359360;28;20048;-60
2023/08/22 06:26:01;;;;;;;12.90;11.13;;;;;;;;;;10375041;28;20071;-62
2023/08/22 06:31:05;;;;;;;25.48;19.40;;;;;;;;;;10359327;28;20474;-61
2023/08/22 06:36:06;;;;;;;19.77;17.23;;;;;;;;;;10372162;28;20067;-62
2023/08/22 06:41:05;;;;;;;13.45;12.07;;;;;;;;;;10375047;28;20494;-62
2023/08/22 06:46:06;;;;;;;13.65;11.43;;;;;;;;;;10373481;28;20085;-62
2023/08/22 06:51:04;;;;;;;10.75;9.75;;;;;;;;;;10375732;28;20505;-62
2023/08/22 06:56:03;;;;;;;13.50;10.63;;;;;;;;;;10375925;28;20087;-62
2023/08/22 07:01:01;;;;;;;13.23;10.20;;;;;;;;;;10370997;28;20069;-62
2023/08/22 07:06:00;;;;;;;20.55;10.88;;;;;;;;;;10375350;28;20099;-60
2023/08/22 07:11:00;;;;;;;13.70;12.48;;;;;;;;;;10371466;28;20165;-61
2023/08/22 07:15:59;;;;;;;16.75;11.05;;;;;;;;;;10373504;28;20075;-61
2023/08/22 07:20:57;;;;;;;14.32;10.25;;;;;;;;;;10372695;28;20510;-63
2023/08/22 07:25:56;;;;;;;10.77;9.43;;;;;;;;;;10371830;28;20083;-62
2023/08/22 07:30:55;;;;;;;12.20;10.00;;;;;;;;;;10374126;28;20077;-64
2023/08/22 07:35:54;;;;;;;11.50;10.43;;;;;;;;;;10372843;28;20483;-62
2023/08/22 07:40:52;;;;;;;10.43;9.45;;;;;;;;;;10373283;28;20082;-63
2023/08/22 07:45:51;;;;;;;12.20;9.75;;;;;;;;;;10371113;28;20067;-63
2023/08/22 07:50:50;;;;;;;12.73;10.02;;;;;;;;;;10371834;28;20072;-62
2023/08/22 07:55:48;;;;;;;10.45;9.55;;;;;;;;;;10362538;28;20071;-62
2023/08/22 08:00:49;;;;;;;11.73;9.25;;;;;;;;;;10364918;28;20067;-63
2023/08/22 08:05:49;;;;;;;13.68;10.20;;;;;;;;;;10365758;28;20071;-63
2023/08/22 08:10:48;;;;;;;13.55;10.45;;;;;;;;;;10370883;28;20080;-63
2023/08/22 08:15:46;;;;;;;14.05;10.35;;;;;;;;;;10365035;28;20516;-63
2023/08/22 08:20:46;;;;;;;12.10;10.57;;;;;;;;;;10366092;28;20536;-63
2023/08/22 08:25:45;;;;;;;11.98;10.77;;;;;;;;;;10365772;28;20084;-62
2023/08/22 08:30:44;;;;;;;12.20;10.75;;;;;;;;;;10366412;28;20082;-63
2023/08/22 08:35:42;;;;;;;10.98;9.95;;;;;;;;;;10369570;28;20067;-63
2023/08/22 08:40:42;;;;;;;11.40;9.38;;;;;;;;;;10370502;28;20090;-62
2023/08/22 08:45:42;;;;;;;16.23;10.13;;;;;;;;;;10368797;28;20480;-63
2023/08/22 08:50:40;;;;;;;12.85;10.10;;;;;;;;;;10368966;28;20364;-64
2023/08/22 08:55:40;;;;;;;11.93;10.20;;;;;;;;;;10369237;28;20071;-62
2023/08/22 09:00:38;;;;;;;10.57;9.30;;;;;;;;;;10371164;28;20080;-63
2023/08/22 09:05:38;;;;;;;11.98;10.18;;;;;;;;;;10374626;28;20079;-62
2023/08/22 09:10:36;;;;;;;10.32;9.32;;;;;;;;;;10381050;28;20068;-62
2023/08/22 09:15:34;;;;;;;11.43;10.32;;;;;;;;;;10375921;28;20071;-62
2023/08/22 09:20:33;;;;;;;10.90;9.90;;;;;;;;;;10377993;28;20471;-62
2023/08/22 09:25:39;;;;;;;11.60;8.55;;;;;;;;;;10378358;28;20079;-62
2023/08/22 09:30:37;;;;;;;11.45;7.82;;;;;;;;;;10377518;28;20082;-61
2023/08/22 09:35:35;;;;;;;9.32;7.88;;;;;;;;;;10377545;27;20072;-61
2023/08/22 09:40:33;;;;;;;9.98;7.35;;;;;;;;;;10378243;28;20082;-62
2023/08/22 09:45:38;;;;;;;8.45;6.28;;;;;;;;;;10377417;28;20067;-62
2023/08/22 09:50:39;;;;;;;8.68;6.25;;;;;;;;;;10375967;28;20063;-62
2023/08/22 09:55:38;;;;;;;7.22;6.30;;;;;;;;;;10379676;28;20469;-63
2023/08/22 10:00:38;;;;;;;5.93;5.43;;;;;;;;;;10378519;28;20074;-62
2023/08/22 10:05:36;;;;;;;8.98;6.22;;;;;;;;;;10373799;28;20076;-62
2023/08/22 10:10:35;;;;;;;6.90;5.95;;;;;;;;;;10356683;28;20078;-61
2023/08/22 10:15:35;;;;;;;9.20;6.20;;;;;;;;;;10374115;28;20510;-62
2023/08/22 10:20:35;;;;;;;9.18;5.82;;;;;;;;;;10376652;27;20079;-64
2023/08/22 10:25:47;;;;;;;6.40;5.43;;;;;;;;;;10375030;28;20079;-62
2023/08/22 10:31:01;;;;;;;8.50;6.10;;;;;;;;;;10375559;28;20088;-62
2023/08/22 10:36:04;;;;;;;6.40;5.78;;;;;;;;;;10377292;28;20509;-62
2023/08/22 10:41:03;;;;;;;9.15;5.78;;;;;;;;;;10374636;28;20157;-63
2023/08/22 10:46:01;;;;;;;6.03;5.43;;;;;;;;;;10371645;28;20498;-62
2023/08/22 10:51:09;;;;;;;9.97;6.17;;;;;;;;;;10372993;28;20090;-62
2023/08/22 10:56:17;;;;;;;6.25;5.72;;;;;;;;;;10373804;28;20332;-62
2023/08/22 11:01:16;;;;;;;10.95;9.93;;;;;;;;;;10374372;28;20067;-62
2023/08/22 11:06:18;;;;;;;9.52;6.03;;;;;;;;;;10376996;28;20067;-63
2023/08/22 11:11:16;;;;;;;10.18;6.22;;;;;;;;;;10373634;28;20079;-62
2023/08/22 11:16:16;;;;;;;11.77;6.97;;;;;;;;;;10374504;27;20075;-60
2023/08/22 11:21:14;;;;;;;8.45;7.40;;;;;;;;;;10374838;28;20535;-63
2023/08/22 11:26:14;;;;;;;8.98;8.05;;;;;;;;;;10375022;28;20091;-62
2023/08/22 11:31:16;;;;;;;7.07;6.32;;;;;;;;;;10372730;28;20078;-62
2023/08/22 11:36:15;;;;;;;7.75;6.90;;;;;;;;;;10374221;28;20083;-62
2023/08/22 11:41:15;;;;;;;12.10;6.82;;;;;;;;;;10374310;28;20531;-63
2023/08/22 11:46:13;;;;;;;8.30;6.50;;;;;;;;;;10371381;28;20531;-63
2023/08/22 11:51:18;;;;;;;7.93;6.60;;;;;;;;;;10373723;28;20075;-63
2023/08/22 11:56:19;;;;;;;8.88;6.47;;;;;;;;;;10365546;28;20075;-63
2023/08/22 12:01:17;;;;;;;8.70;5.85;;;;;;;;;;10345533;28;20072;-62
2023/08/22 12:06:18;;;;;;;6.90;6.25;;;;;;;;;;10348013;28;20446;-62
2023/08/22 12:11:27;;;;;;;7.22;6.05;;;;;;;;;;10357013;28;20079;-62
2023/08/22 12:16:26;;;;;;;12.13;5.80;;;;;;;;;;10367557;28;20445;-62
2023/08/22 12:21:24;;;;;;;6.97;5.82;;;;;;;;;;10364767;28;20541;-62
2023/08/22 12:26:22;;;;;;;8.25;6.05;;;;;;;;;;10366217;28;20082;-62
2023/08/22 12:31:22;;;;;;;6.45;5.85;;;;;;;;;;10366795;28;20075;-61
2023/08/22 12:36:20;;;;;;;6.80;5.80;;;;;;;;;;10371773;28;20078;-61
2023/08/22 12:41:18;;;;;;;7.68;6.55;;;;;;;;;;10382589;28;20075;-62
2023/08/22 12:46:16;;;;;;;5.97;5.38;;;;;;;;;;10387039;27;20067;-62
2023/08/22 12:51:16;;;;;;;6.22;5.63;;;;;;;;;;10380373;28;20071;-62
2023/08/22 12:56:14;;;;;;;8.82;4.65;;;;;;;;;;10384008;28;20094;-62
2023/08/22 13:01:16;;;;;;;6.82;5.10;;;;;;;;;;10384508;28;20778;-62
2023/08/22 13:06:18;;;;;;;6.18;5.57;;;;;;;;;;10385997;28;20075;-62
2023/08/22 13:11:18;;;;;;;8.10;5.77;;;;;;;;;;10384992;27;20075;-61
2023/08/22 13:16:16;;;;;;;8.48;5.57;;;;;;;;;;10385891;28;20072;-61
2023/08/22 13:21:20;;;;;;;10.55;5.60;;;;;;;;;;10386808;28;20067;-62
2023/08/22 13:26:18;;;;;;;11.07;5.80;;;;;;;;;;10385037;28;20099;-61
2023/08/22 13:31:17;;;;;;;8.70;5.13;;;;;;;;;;10382897;28;20083;-62
2023/08/22 13:36:16;;;;;;;6.68;5.95;;;;;;;;;;10382465;28;20071;-62
2023/08/22 13:41:18;;;;;;;9.93;6.20;;;;;;;;;;10384890;28;20516;-61
2023/08/22 13:46:16;;;;;;;6.63;5.60;;;;;;;;;;10385376;28;20040;-62
2023/08/22 13:51:16;;;;;;;5.65;4.88;;;;;;;;;;10382679;27;20450;-61
2023/08/22 13:56:16;;;;;;;8.25;5.30;;;;;;;;;;10372200;28;20079;-62
2023/08/22 14:01:15;;;;;;;9.27;6.20;;;;;;;;;;10355082;28;20055;-61
2023/08/22 14:06:13;;;;;;;6.43;4.60;;;;;;;;;;10363224;28;20071;-62
2023/08/22 14:11:12;;;;;;;8.88;5.32;;;;;;;;;;10365744;28;20087;-62
2023/08/22 14:16:10;;;;;;;5.65;4.85;;;;;;;;;;10376258;28;20060;-61
2023/08/22 14:21:10;;;;;;;8.70;5.10;;;;;;;;;;10370999;28;20071;-60
2023/08/22 14:26:08;;;;;;;6.75;4.95;;;;;;;;;;10374689;27;20075;-61
2023/08/22 14:31:06;;;;;;;12.90;6.15;;;;;;;;;;10371480;28;20559;-61
2023/08/22 14:36:06;;;;;;;9.82;5.25;;;;;;;;;;10368697;28;20075;-61
2023/08/22 14:41:06;;;;;;;8.18;5.35;;;;;;;;;;10370127;28;20074;-62
2023/08/22 14:46:04;;;;;;;8.30;5.65;;;;;;;;;;10367865;28;20071;-62
2023/08/22 14:51:02;;;;;;;5.53;4.90;;;;;;;;;;10359325;28;20491;-61
2023/08/22 14:56:01;;;;;;;8.25;4.55;;;;;;;;;;10355017;28;20067;-61
2023/08/22 15:01:01;;;;;;;4.90;4.50;;;;;;;;;;10352674;28;20071;-62
2023/08/22 15:05:59;;;;;;;5.75;5.25;;;;;;;;;;10363270;28;20087;-61
2023/08/22 15:10:58;;;;;;;5.13;4.60;;;;;;;;;;10367759;28;20606;-62
2023/08/22 15:15:58;;;;;;;5.47;4.95;;;;;;;;;;10374099;28;20070;-62
2023/08/22 15:20:59;;;;;;;5.20;4.47;;;;;;;;;;10369597;28;20071;-62
2023/08/22 15:25:59;;;;;;;15.77;5.43;;;;;;;;;;10364678;28;20075;-61
2023/08/22 15:30:57;;;;;;;5.40;4.78;;;;;;;;;;10366186;28;20083;-62
2023/08/22 15:35:58;;;;;;;6.10;5.50;;;;;;;;;;10374955;28;20060;-62
2023/08/22 15:40:58;;;;;;;7.95;5.18;;;;;;;;;;10362350;28;20071;-61
2023/08/22 15:45:56;;;;;;;6.35;5.07;;;;;;;;;;10368941;28;20071;-61
2023/08/22 15:50:57;;;;;;;11.27;4.90;;;;;;;;;;10358927;28;20109;-61
2023/08/22 15:55:57;;;;;;;6.10;5.38;;;;;;;;;;10370105;28;20067;-62
2023/08/22 16:00:55;;;;;;;5.32;4.82;;;;;;;;;;10367866;28;20555;-61
2023/08/22 16:05:57;;;;;;;6.70;5.53;;;;;;;;;;10360973;28;20067;-62
2023/08/22 16:10:56;;;;;;;8.00;5.78;;;;;;;;;;10357590;28;20071;-61
2023/08/22 16:15:55;;;;;;;7.18;6.47;;;;;;;;;;10368676;28;20098;-62
2023/08/22 16:20:53;;;;;;;19.00;6.30;;;;;;;;;;10368591;28;20072;-62
2023/08/22 16:25:52;;;;;;;8.52;5.63;;;;;;;;;;10352502;28;20477;-63
2023/08/22 16:30:50;;;;;;;7.13;5.10;;;;;;;;;;10354870;28;20114;-60
2023/08/22 16:35:53;;;;;;;8.45;7.60;;;;;;;;;;10353426;28;20072;-62
2023/08/22 16:40:55;;;;;;;10.35;5.97;;;;;;;;;;10362259;28;20513;-64
2023/08/22 16:45:54;;;;;;;10.02;6.10;;;;;;;;;;10367357;28;20591;-62
2023/08/22 16:50:54;;;;;;;10.50;5.45;;;;;;;;;;10367971;28;20082;-63
2023/08/22 16:55:55;;;;;;;6.85;6.00;;;;;;;;;;10365617;28;20087;-62
2023/08/22 17:00:54;;;;;;;12.88;7.15;;;;;;;;;;10368308;28;20067;-62
2023/08/22 17:05:53;;;;;;;6.78;5.22;;;;;;;;;;10368533;28;20059;-61
2023/08/22 17:10:51;;;;;;;11.68;7.03;;;;;;;;;;10368718;28;20063;-62
2023/08/22 17:15:58;;;;;;;12.57;7.38;;;;;;;;;;10352989;28;20087;-61
2023/08/22 17:20:58;;;;;;;8.18;5.90;;;;;;;;;;10369429;28;20082;-62
2023/08/22 17:26:02;;;;;;;8.88;6.65;;;;;;;;;;10370225;28;20068;-61
2023/08/22 17:31:04;;;;;;;8.13;5.70;;;;;;;;;;10379007;28;20079;-61
2023/08/22 17:36:04;;;;;;;10.47;5.47;;;;;;;;;;10376522;28;20071;-61
2023/08/22 17:41:04;;;;;;;6.43;5.78;;;;;;;;;;10378675;28;20087;-62
2023/08/22 17:46:02;;;;;;;11.15;6.93;;;;;;;;;;10374008;28;20066;-61
2023/08/22 17:51:01;;;;;;;13.40;8.32;;;;;;;;;;10378344;28;20071;-62
2023/08/22 17:56:00;;;;;;;7.65;5.60;;;;;;;;;;10375423;28;20083;-62
2023/08/22 18:00:59;;;;;;;6.60;5.40;;;;;;;;;;10373430;28;20462;-63
2023/08/22 18:05:58;;;;;;;8.15;7.45;;;;;;;;;;10378161;28;20079;-63
2023/08/22 18:10:56;;;;;;;6.18;5.00;;;;;;;;;;10375968;28;20070;-61
2023/08/22 18:15:59;;;;;;;10.57;5.50;;;;;;;;;;10377179;27;20084;-62
2023/08/22 18:21:04;;;;;;;6.45;5.68;;;;;;;;;;10375330;28;20078;-61
2023/08/22 18:26:03;;;;;;;6.93;6.25;;;;;;;;;;10375588;28;20090;-62
2023/08/22 18:31:08;;;;;;;10.65;5.38;;;;;;;;;;10376991;28;20087;-62
2023/08/22 18:36:15;;;;;;;10.13;4.88;;;;;;;;;;10375889;28;20076;-63
2023/08/22 18:41:14;;;;;;;11.57;7.10;;;;;;;;;;10374710;27;20063;-63
2023/08/22 18:46:14;;;;;;;7.47;5.35;;;;;;;;;;10373141;28;20079;-63
2023/08/22 18:51:12;;;;;;;7.38;6.75;;;;;;;;;;10375171;27;20075;-63
2023/08/22 18:56:10;;;;;;;7.72;5.68;;;;;;;;;;10373519;28;20327;-62
2023/08/22 19:01:08;;;;;;;8.95;5.82;;;;;;;;;;10377704;28;20063;-62
2023/08/22 19:06:08;;;;;;;6.38;5.65;;;;;;;;;;10373356;28;20067;-62
2023/08/22 19:11:06;;;;;;;12.20;6.90;;;;;;;;;;10373127;28;20509;-62
2023/08/22 19:16:05;;;;;;;7.00;6.40;;;;;;;;;;10373723;28;20078;-62
2023/08/22 19:21:03;;;;;;;11.90;6.32;;;;;;;;;;10371679;28;20078;-62
2023/08/22 19:26:04;;;;;;;7.80;7.10;;;;;;;;;;10374756;28;20078;-61
2023/08/22 19:31:05;;;;;;;7.80;7.00;;;;;;;;;;10372868;28;20064;-61
2023/08/22 19:36:04;;;;;;;5.25;4.80;;;;;;;;;;10374561;27;20079;-62
2023/08/22 19:41:03;;;;;;;8.43;6.72;;;;;;;;;;10371567;28;20067;-61
2023/08/22 19:46:01;;;;;;;10.50;6.90;;;;;;;;;;10372196;28;20457;-61
2023/08/22 19:51:02;;;;;;;11.20;8.82;;;;;;;;;;10372788;28;20055;-61
2023/08/22 19:56:01;;;;;;;8.98;8.05;;;;;;;;;;10372098;28;20082;-61
2023/08/22 20:01:04;;;;;;;7.15;5.70;;;;;;;;;;10372221;28;20086;-61
2023/08/22 20:06:02;;;;;;;7.00;5.13;;;;;;;;;;10370831;28;20078;-62
2023/08/22 20:11:01;;;;;;;5.90;5.13;;;;;;;;;;10373712;28;20067;-61
2023/08/22 20:16:01;;;;;;;6.18;5.40;;;;;;;;;;10373598;28;20077;-61
2023/08/22 20:21:00;;;;;;;6.95;5.07;;;;;;;;;;10354923;28;20064;-62
2023/08/22 20:26:00;;;;;;;8.15;5.22;;;;;;;;;;10356739;28;20072;-61
2023/08/22 20:31:01;;;;;;;6.35;5.70;;;;;;;;;;10360250;28;20071;-62
2023/08/22 20:36:08;;;;;;;12.25;5.85;;;;;;;;;;10369911;28;20067;-62
2023/08/22 20:41:07;;;;;;;5.60;5.07;;;;;;;;;;10366360;28;20071;-62
2023/08/22 20:46:06;;;;;;;5.53;4.97;;;;;;;;;;10365794;28;20063;-62
2023/08/22 20:51:07;;;;;;;5.93;5.32;;;;;;;;;;10367481;28;20086;-61
2023/08/22 20:56:07;;;;;;;6.28;5.28;;;;;;;;;;10370260;28;20076;-61
2023/08/22 21:01:07;;;;;;;10.23;5.97;;;;;;;;;;10373647;28;20067;-61
2023/08/22 21:06:08;;;;;;;7.30;5.95;;;;;;;;;;10371706;28;20289;-61
2023/08/22 21:11:07;;;;;;;9.15;5.57;;;;;;;;;;10374862;28;20072;-61
2023/08/22 21:16:06;;;;;;;5.93;5.20;;;;;;;;;;10376299;27;20076;-62
2023/08/22 21:21:05;;;;;;;9.55;5.57;;;;;;;;;;10375595;28;20063;-61
2023/08/22 21:26:03;;;;;;;9.18;5.78;;;;;;;;;;10378665;28;20075;-61
2023/08/22 21:31:01;;;;;;;7.22;5.88;;;;;;;;;;10377747;28;20071;-63
2023/08/22 21:36:01;;;;;;;5.93;5.32;;;;;;;;;;10378187;28;20064;-63
2023/08/22 21:41:01;;;;;;;6.00;5.50;;;;;;;;;;10376640;28;20078;-60
2023/08/22 21:45:59;;;;;;;6.15;5.57;;;;;;;;;;10374759;28;20094;-60
2023/08/22 21:50:57;;;;;;;5.82;5.30;;;;;;;;;;10372509;28;20075;-63
2023/08/22 21:55:57;;;;;;;7.78;5.85;;;;;;;;;;10375823;28;20610;-62
2023/08/22 22:00:59;;;;;;;8.32;5.38;;;;;;;;;;10378597;28;20067;-62
2023/08/22 22:06:06;;;;;;;11.40;5.68;;;;;;;;;;10371505;28;20075;-60
2023/08/22 22:11:08;;;;;;;8.45;5.90;;;;;;;;;;10372940;28;20098;-61
2023/08/22 22:16:09;;;;;;;5.83;5.33;;;;;;;;;;10376388;28;20087;-63
2023/08/22 22:21:07;;;;;;;11.82;5.60;;;;;;;;;;10375007;28;20067;-61
2023/08/22 22:26:06;;;;;;;7.85;5.78;;;;;;;;;;10376388;28;20079;-62
2023/08/22 22:31:09;;;;;;;11.50;5.88;;;;;;;;;;10377168;28;20076;-62
2023/08/22 22:36:09;;;;;;;11.95;5.80;;;;;;;;;;10375585;28;20067;-62
2023/08/22 22:41:07;;;;;;;10.10;5.30;;;;;;;;;;10376670;28;20484;-62
2023/08/22 22:46:05;;;;;;;9.50;5.13;;;;;;;;;;10372673;28;20093;-62
2023/08/22 22:51:05;;;;;;;6.95;4.97;;;;;;;;;;10377066;28;20071;-61
2023/08/22 22:56:03;;;;;;;7.00;5.68;;;;;;;;;;10374836;28;20066;-61
2023/08/22 23:01:03;;;;;;;7.95;5.88;;;;;;;;;;10373097;28;20075;-61
2023/08/22 23:06:07;;;;;;;6.63;5.93;;;;;;;;;;10373631;28;20079;-62
2023/08/22 23:11:05;;;;;;;;;;;;;;;;;;10373479;28;20075;-61
2023/08/22 23:16:06;;;;;;;10.98;5.57;;;;;;;;;;10373388;28;19956;-61
2023/08/22 23:21:04;;;;;;;6.07;5.20;;;;;;;;;;10371829;28;20071;-61
2023/08/22 23:26:04;;;;;;;5.82;5.22;;;;;;;;;;10371845;28;20080;-61
2023/08/22 23:31:02;;;;;;;10.02;6.63;;;;;;;;;;10374339;28;20059;-61
2023/08/22 23:36:00;;;;;;;8.10;6.07;;;;;;;;;;10371173;28;20102;-60
2023/08/22 23:40:58;;;;;;;7.72;5.55;;;;;;;;;;10372944;28;20071;-60
2023/08/22 23:45:58;;;;;;;8.43;5.53;;;;;;;;;;10372920;28;20068;-61
2023/08/22 23:50:56;;;;;;;8.02;5.95;;;;;;;;;;10369992;28;20067;-62
2023/08/22 23:56:13;;;;;;;6.15;5.38;;;;;;;;;;10368877;28;20075;-62
